Time;durP1;ratioP1;P1;durP2;ratioP2;P2;SDS_P1;SDS_P2;PMS_P1;PMS_P2;Temp;Humidity;BMP_temperature;BMP_pressure;BME280_temperature;BME280_humidity;BME280_pressure;Samples;Min_cycle;Max_cycle;Signal;HPM_P1;HPM_P2
2022/01/03 00:01:32;;;;;;;2.20;1.73;;;11.10;99.90;;;;;;5076107;28;20442;-85
2022/01/03 00:03:58;;;;;;;1.43;1.33;;;11.20;99.90;;;;;;5076302;28;20227;-85
2022/01/03 00:06:25;;;;;;;2.70;1.60;;;11.20;99.90;;;;;;5075881;28;20882;-86
2022/01/03 00:08:52;;;;;;;3.20;2.00;;;11.20;99.90;;;;;;5079474;28;20456;-85
2022/01/03 00:11:21;;;;;;;3.57;2.20;;;11.10;99.90;;;;;;5083199;28;20481;-83
2022/01/03 00:13:51;;;;;;;1.50;1.20;;;11.10;99.90;;;;;;5087669;28;21037;-83
2022/01/03 00:16:17;;;;;;;1.30;1.20;;;11.20;99.90;;;;;;5074289;28;20461;-82
2022/01/03 00:18:44;;;;;;;3.07;1.50;;;11.30;99.90;;;;;;5073600;28;20466;-82
2022/01/03 00:21:13;;;;;;;2.80;1.30;;;11.30;99.90;;;;;;5075943;28;20445;-83
2022/01/03 00:23:41;;;;;;;2.33;2.00;;;11.30;99.90;;;;;;5084128;28;20476;-82
2022/01/03 00:26:09;;;;;;;3.40;2.17;;;11.30;99.90;;;;;;5079254;28;20461;-83
2022/01/03 00:28:45;;;;;;;2.03;1.00;;;11.40;99.90;;;;;;5076331;28;20464;-83
2022/01/03 00:31:12;;;;;;;3.93;2.73;;;11.40;99.90;;;;;;5075658;28;20468;-84
2022/01/03 00:33:40;;;;;;;2.50;1.93;;;11.50;99.90;;;;;;5073139;28;20468;-83
2022/01/03 00:36:07;;;;;;;2.90;1.70;;;11.50;99.90;;;;;;5072711;28;20882;-83
2022/01/03 00:38:36;;;;;;;4.47;1.27;;;11.60;99.90;;;;;;5072874;28;20454;-82
2022/01/03 00:41:03;;;;;;;2.40;1.40;;;11.60;99.90;;;;;;5072510;28;20452;-83
2022/01/03 00:43:31;;;;;;;3.43;1.87;;;11.60;99.90;;;;;;5073433;28;20469;-83
2022/01/03 00:45:59;;;;;;;1.50;0.90;;;11.60;99.90;;;;;;5075119;28;20814;-83
2022/01/03 00:48:26;;;;;;;4.90;1.57;;;11.70;99.90;;;;;;5074617;28;20485;-83
2022/01/03 00:50:53;;;;;;;3.03;1.67;;;11.60;99.90;;;;;;5072022;28;21025;-84
2022/01/03 00:53:20;;;;;;;1.40;1.30;;;11.60;99.90;;;;;;5072964;28;20495;-86
2022/01/03 00:56:01;;;;;;;1.03;0.97;;;11.60;99.90;;;;;;5072156;28;20457;-86
2022/01/03 00:58:33;;;;;;;2.13;1.50;;;11.60;99.90;;;;;;5072699;28;20514;-86
2022/01/03 01:01:02;;;;;;;3.23;1.17;;;11.60;99.90;;;;;;5072481;28;20445;-86
2022/01/03 01:03:42;;;;;;;1.63;1.37;;;11.60;99.90;;;;;;5072414;28;20474;-84
2022/01/03 01:06:10;;;;;;;2.20;1.53;;;11.60;99.90;;;;;;5073660;28;20501;-85
2022/01/03 01:08:38;;;;;;;3.20;1.63;;;11.60;99.90;;;;;;5074368;28;20438;-85
2022/01/03 01:11:07;;;;;;;1.70;1.60;;;11.60;99.90;;;;;;5073988;28;20841;-84
2022/01/03 01:13:36;;;;;;;2.10;1.20;;;11.60;99.90;;;;;;5072330;28;20228;-84
2022/01/03 01:16:07;;;;;;;1.57;1.37;;;11.60;99.90;;;;;;5072340;28;20545;-84
2022/01/03 01:18:36;;;;;;;2.67;1.93;;;11.50;99.90;;;;;;5071967;28;20450;-84
2022/01/03 01:21:09;;;;;;;3.33;1.43;;;11.50;99.90;;;;;;5072253;28;20522;-86
2022/01/03 01:23:40;;;;;;;2.17;1.43;;;11.50;99.90;;;;;;5072222;28;20580;-85
2022/01/03 01:28:51;;;;;;;1.73;1.50;;;11.50;99.90;;;;;;5073348;28;20471;-85
2022/01/03 01:31:22;;;;;;;1.10;1.00;;;11.60;99.90;;;;;;5073809;28;20489;-85
2022/01/03 01:33:53;;;;;;;1.90;1.80;;;11.60;99.90;;;;;;5072633;28;20485;-85
2022/01/03 01:36:23;;;;;;;2.10;1.70;;;11.60;99.90;;;;;;5052254;28;20938;-84
2022/01/03 01:38:52;;;;;;;2.23;1.40;;;11.50;99.90;;;;;;5052289;28;20445;-84
2022/01/03 01:41:20;;;;;;;3.88;1.63;;;11.50;99.90;;;;;;5056189;28;20450;-85
2022/01/03 01:43:50;;;;;;;2.70;1.23;;;11.40;99.90;;;;;;5057606;28;20749;-84
2022/01/03 01:46:21;;;;;;;2.30;2.07;;;11.40;99.90;;;;;;5056960;28;20511;-86
2022/01/03 01:48:50;;;;;;;1.23;1.10;;;11.40;99.90;;;;;;5056221;28;20462;-85
2022/01/03 01:51:19;;;;;;;4.10;1.63;;;11.40;99.90;;;;;;5073524;28;20816;-86
2022/01/03 01:53:59;;;;;;;4.90;1.63;;;11.30;99.90;;;;;;5075547;28;20473;-84
2022/01/03 01:56:28;;;;;;;1.75;1.60;;;11.30;99.90;;;;;;5075907;28;20445;-84
2022/01/03 01:59:11;;;;;;;2.70;1.48;;;11.30;99.90;;;;;;5075648;28;20249;-84
2022/01/03 02:01:48;;;;;;;5.32;1.60;;;11.40;99.90;;;;;;5075447;28;20201;-84
2022/01/03 02:04:28;;;;;;;1.97;1.40;;;11.40;99.90;;;;;;5077907;28;20256;-85
2022/01/03 02:07:05;;;;;;;2.53;2.03;;;11.40;99.90;;;;;;5077587;28;20438;-84
2022/01/03 02:09:42;;;;;;;1.50;1.40;;;11.40;99.90;;;;;;5075341;28;21236;-84
2022/01/03 02:12:16;;;;;;;2.93;2.00;;;11.30;99.90;;;;;;5075009;28;20877;-84
2022/01/03 02:14:44;;;;;;;5.07;1.43;;;11.30;99.90;;;;;;5075887;28;20889;-84
2022/01/03 02:17:13;;;;;;;4.17;1.73;;;11.30;99.90;;;;;;5075519;28;20889;-85
2022/01/03 02:19:41;;;;;;;3.00;1.83;;;11.20;99.90;;;;;;5075512;28;20450;-85
2022/01/03 02:22:10;;;;;;;1.90;1.73;;;11.30;99.90;;;;;;5075359;28;20450;-85
2022/01/03 02:24:37;;;;;;;3.50;1.00;;;11.20;99.90;;;;;;5075222;28;20951;-84
2022/01/03 02:27:04;;;;;;;3.97;1.93;;;11.10;99.90;;;;;;5074958;28;20467;-84
2022/01/03 02:29:31;;;;;;;1.50;1.40;;;11.10;99.90;;;;;;5075294;28;20848;-84
2022/01/03 02:31:58;;;;;;;2.20;1.73;;;11.20;99.90;;;;;;5080917;28;20472;-85
2022/01/03 02:34:29;;;;;;;1.93;1.10;;;11.10;99.90;;;;;;5077929;28;20465;-85
2022/01/03 02:40:14;;;;;;;5.33;1.70;;;11.20;99.90;;;;;;5080691;28;20450;-84
2022/01/03 02:42:42;;;;;;;13.68;3.75;;;11.10;99.90;;;;;;5080088;28;20455;-84
2022/01/03 02:45:11;;;;;;;4.83;1.90;;;11.10;99.90;;;;;;5084211;28;20212;-84
2022/01/03 02:47:39;;;;;;;3.47;1.50;;;11.00;99.90;;;;;;5083816;28;20444;-84
2022/01/03 02:50:08;;;;;;;1.03;0.90;;;11.10;99.90;;;;;;5095024;28;20464;-86
2022/01/03 02:52:42;;;;;;;2.20;1.33;;;11.10;99.90;;;;;;5106157;28;20487;-85
2022/01/03 02:55:11;;;;;;;2.83;1.60;;;11.10;99.90;;;;;;5097317;28;20469;-85
2022/01/03 02:57:40;;;;;;;4.00;2.27;;;11.00;99.90;;;;;;5082087;28;20466;-84
2022/01/03 03:00:10;;;;;;;2.13;1.87;;;11.00;99.90;;;;;;5077022;28;20449;-85
2022/01/03 03:02:37;;;;;;;3.80;1.27;;;11.00;99.90;;;;;;5076733;28;20474;-85
2022/01/03 03:05:06;;;;;;;1.53;1.40;;;11.00;99.90;;;;;;5084900;28;20452;-85
2022/01/03 03:07:33;;;;;;;2.00;1.07;;;11.10;99.90;;;;;;5096718;28;20449;-84
2022/01/03 03:10:08;;;;;;;1.80;1.27;;;11.00;99.90;;;;;;5081784;28;20455;-85
2022/01/03 03:12:36;;;;;;;2.38;1.15;;;11.00;99.90;;;;;;5071617;28;20492;-84
2022/01/03 03:15:04;;;;;;;2.20;1.30;;;10.90;99.90;;;;;;5060515;28;20550;-84
2022/01/03 03:17:31;;;;;;;2.53;1.27;;;10.90;99.90;;;;;;5056708;28;20460;-84
2022/01/03 03:20:00;;;;;;;1.63;1.40;;;10.90;99.90;;;;;;5065859;28;20433;-84
2022/01/03 03:22:29;;;;;;;2.43;1.47;;;10.80;99.90;;;;;;5090867;28;20482;-84
2022/01/03 03:25:01;;;;;;;2.90;1.30;;;10.90;99.90;;;;;;5090575;28;20440;-84
2022/01/03 03:27:29;;;;;;;3.90;1.87;;;10.90;99.90;;;;;;5071009;28;20445;-86
2022/01/03 03:29:57;;;;;;;2.60;1.90;;;10.80;99.90;;;;;;5058608;28;20940;-84
2022/01/03 03:32:28;;;;;;;0.90;0.77;;;10.80;99.90;;;;;;5083639;28;20497;-84
2022/01/03 03:34:55;;;;;;;3.60;1.70;;;10.80;99.90;;;;;;5081041;28;20447;-84
2022/01/03 03:37:22;;;;;;;1.97;1.03;;;10.80;99.90;;;;;;5080373;28;20541;-84
2022/01/03 03:39:51;;;;;;;2.70;1.30;;;10.80;99.90;;;;;;5083754;28;20449;-84
2022/01/03 03:42:19;;;;;;;2.97;1.43;;;10.80;99.90;;;;;;5064678;28;20442;-83
2022/01/03 03:44:47;;;;;;;2.70;1.70;;;10.80;99.90;;;;;;5071974;28;20531;-83
2022/01/03 03:47:15;;;;;;;1.93;1.30;;;10.70;99.90;;;;;;5097976;28;20210;-83
2022/01/03 03:49:42;;;;;;;3.20;1.40;;;10.80;99.90;;;;;;5076540;28;20476;-86
2022/01/03 03:52:09;;;;;;;1.97;1.10;;;10.70;99.90;;;;;;5056741;28;20577;-85
2022/01/03 03:54:37;;;;;;;1.87;1.73;;;10.70;99.90;;;;;;5073312;28;20468;-85
2022/01/03 03:57:08;;;;;;;2.60;1.13;;;10.70;99.90;;;;;;5083124;28;20442;-83
2022/01/03 03:59:38;;;;;;;1.93;1.80;;;10.60;99.90;;;;;;5095698;28;20484;-83
2022/01/03 04:02:14;;;;;;;2.63;1.50;;;10.60;99.90;;;;;;5091477;28;20446;-83
2022/01/03 04:04:41;;;;;;;1.50;1.40;;;10.60;99.90;;;;;;5075789;28;20459;-84
2022/01/03 04:07:09;;;;;;;2.67;1.70;;;10.60;99.90;;;;;;5084396;28;20216;-84
2022/01/03 04:09:41;;;;;;;3.08;1.80;;;10.50;99.90;;;;;;5094876;28;20202;-84
2022/01/03 04:12:08;;;;;;;1.60;1.50;;;10.50;99.90;;;;;;5092227;28;20248;-85
2022/01/03 04:14:35;;;;;;;3.20;1.40;;;10.50;99.90;;;;;;5095295;28;20434;-85
2022/01/03 04:17:06;;;;;;;2.60;1.30;;;10.50;99.90;;;;;;5086718;28;20800;-85
2022/01/03 04:19:32;;;;;;;1.30;1.20;;;10.50;99.90;;;;;;5073170;28;20210;-84
2022/01/03 04:21:59;;;;;;;5.33;1.90;;;10.40;99.90;;;;;;5073131;28;20810;-84
2022/01/03 04:24:27;;;;;;;1.30;1.20;;;10.40;99.90;;;;;;5073226;28;20466;-84
2022/01/03 04:26:54;;;;;;;2.30;1.17;;;10.30;99.90;;;;;;5072626;28;20230;-84
2022/01/03 04:29:21;;;;;;;3.13;1.75;;;10.40;99.90;;;;;;5073387;28;20525;-84
2022/01/03 04:31:48;;;;;;;1.50;1.20;;;10.40;99.90;;;;;;5072872;28;20222;-84
2022/01/03 04:34:16;;;;;;;6.13;2.30;;;10.40;99.90;;;;;;5072550;28;20488;-84
2022/01/03 04:36:43;;;;;;;6.43;1.88;;;10.40;99.90;;;;;;5072789;28;20462;-84
2022/01/03 04:39:10;;;;;;;2.85;1.20;;;10.30;99.90;;;;;;5072665;28;20203;-86
2022/01/03 04:41:37;;;;;;;3.60;1.60;;;10.40;99.90;;;;;;5072717;28;20214;-85
2022/01/03 04:44:06;;;;;;;2.92;1.05;;;10.50;99.90;;;;;;5073189;28;20477;-86
2022/01/03 04:46:33;;;;;;;2.90;2.22;;;10.40;99.90;;;;;;5073368;28;20341;-85
2022/01/03 04:49:00;;;;;;;1.17;1.00;;;10.50;99.90;;;;;;5072583;28;20262;-85
2022/01/03 04:51:28;;;;;;;4.37;1.70;;;10.50;99.90;;;;;;5072178;28;20481;-85
2022/01/03 04:54:05;;;;;;;4.32;2.00;;;10.60;99.90;;;;;;5076361;28;20471;-85
2022/01/03 04:56:33;;;;;;;2.20;1.67;;;10.70;99.90;;;;;;5075954;28;20723;-85
2022/01/03 04:59:00;;;;;;;4.90;1.73;;;10.70;99.90;;;;;;5081267;28;20931;-85
2022/01/03 05:01:27;;;;;;;2.63;1.30;;;10.80;99.90;;;;;;5092558;28;20446;-85
2022/01/03 05:03:54;;;;;;;2.03;1.30;;;10.90;99.90;;;;;;5077589;28;20470;-85
2022/01/03 05:06:20;;;;;;;4.47;1.67;;;10.80;99.90;;;;;;5077320;28;20447;-85
2022/01/03 05:08:49;;;;;;;5.77;1.27;;;10.80;99.90;;;;;;5082954;28;20449;-85
2022/01/03 05:11:16;;;;;;;2.30;0.83;;;10.80;99.90;;;;;;5091539;28;20444;-85
2022/01/03 05:13:46;;;;;;;2.90;2.40;;;10.80;99.90;;;;;;5058457;28;20488;-85
2022/01/03 05:16:13;;;;;;;3.00;1.50;;;10.80;99.90;;;;;;5082736;28;20540;-85
2022/01/03 05:18:39;;;;;;;3.10;1.70;;;10.80;99.90;;;;;;5083880;28;20832;-85
2022/01/03 05:21:07;;;;;;;2.10;1.23;;;10.70;99.90;;;;;;5085082;28;20455;-85
2022/01/03 05:23:40;;;;;;;1.43;1.33;;;10.60;99.90;;;;;;5082084;28;20624;-85
2022/01/03 05:26:16;;;;;;;3.30;1.30;;;10.50;99.90;;;;;;5064731;28;20442;-85
2022/01/03 05:28:45;;;;;;;9.53;2.30;;;10.60;99.90;;;;;;5079999;28;20440;-85
2022/01/03 05:31:15;;;;;;;3.50;1.80;;;10.50;99.90;;;;;;5071294;28;20507;-85
2022/01/03 05:33:42;;;;;;;2.97;1.57;;;10.50;99.90;;;;;;5103083;28;20503;-85
2022/01/03 05:36:09;;;;;;;4.33;2.17;;;10.50;99.90;;;;;;5106519;28;20520;-85
2022/01/03 05:38:37;;;;;;;4.53;1.67;;;10.50;99.90;;;;;;5101297;28;20501;-85
2022/01/03 05:41:04;;;;;;;3.20;1.83;;;10.60;99.90;;;;;;5097319;28;20211;-86
2022/01/03 05:43:33;;;;;;;3.80;1.27;;;10.50;99.90;;;;;;5084142;28;20460;-86
2022/01/03 05:46:00;;;;;;;2.40;1.30;;;10.50;99.90;;;;;;5083571;28;20454;-86
2022/01/03 05:48:28;;;;;;;5.90;1.43;;;10.50;99.90;;;;;;5079324;28;20449;-86
2022/01/03 05:51:01;;;;;;;1.20;1.10;;;10.60;99.90;;;;;;5076004;28;20561;-84
2022/01/03 05:53:33;;;;;;;3.73;1.60;;;10.60;99.90;;;;;;5075934;28;20485;-84
2022/01/03 05:55:59;;;;;;;1.70;1.33;;;10.60;99.90;;;;;;5078305;28;20472;-84
2022/01/03 05:58:27;;;;;;;1.60;1.08;;;10.70;99.90;;;;;;5077424;28;20947;-85
2022/01/03 06:01:01;;;;;;;6.47;1.50;;;10.60;99.90;;;;;;5077688;28;20670;-84
2022/01/03 06:03:34;;;;;;;1.88;1.60;;;10.60;99.90;;;;;;5078088;28;20222;-85
2022/01/03 06:08:44;;;;;;;3.25;1.40;;;10.70;99.90;;;;;;5077100;28;20210;-85
2022/01/03 06:11:16;;;;;;;2.85;1.40;;;10.70;99.90;;;;;;5076876;28;20209;-85
2022/01/03 06:13:43;;;;;;;4.60;1.88;;;10.70;99.90;;;;;;5075442;28;20241;-85
2022/01/03 06:16:13;;;;;;;5.50;1.77;;;10.80;99.90;;;;;;5075516;28;20210;-84
2022/01/03 06:18:54;;;;;;;3.03;1.60;;;10.80;99.90;;;;;;5055534;28;20474;-85
2022/01/03 06:21:21;;;;;;;2.53;1.87;;;10.80;99.90;;;;;;5055234;28;20457;-85
2022/01/03 06:23:47;;;;;;;7.37;2.07;;;10.80;99.90;;;;;;5057992;28;20467;-84
2022/01/03 06:50:07;;;;;;;5.77;1.90;;;10.50;99.90;;;;;;5046168;28;20840;-84
2022/01/03 06:55:13;;;;;;;3.67;1.25;;;10.40;99.90;;;;;;5074960;28;20233;-87
2022/01/03 06:57:40;;;;;;;2.77;1.70;;;10.30;99.90;;;;;;5077721;28;20211;-86
2022/01/03 07:00:09;;;;;;;2.80;1.80;;;10.20;99.90;;;;;;5076923;28;21010;-86
2022/01/03 07:02:37;;;;;;;4.27;1.47;;;10.20;99.90;;;;;;5077459;28;20906;-86
2022/01/03 07:05:05;;;;;;;2.67;1.57;;;10.10;99.90;;;;;;5057315;28;20777;-86
2022/01/03 07:07:32;;;;;;;2.07;1.33;;;10.10;99.90;;;;;;5056978;28;20914;-87
2022/01/03 07:09:59;;;;;;;2.55;1.58;;;10.10;99.90;;;;;;5057021;28;20438;-86
2022/01/03 07:12:27;;;;;;;7.35;3.30;;;10.10;99.90;;;;;;5058295;28;20238;-86
2022/01/03 07:21:11;;;;;;;7.00;4.10;;;10.00;99.90;;;;;;5058556;28;20409;-87
2022/01/03 07:23:43;;;;;;;4.68;1.83;;;9.70;99.90;;;;;;5097205;28;20234;-86
2022/01/03 07:26:18;;;;;;;2.45;1.40;;;9.70;99.90;;;;;;5096710;28;20293;-86
2022/01/03 07:28:53;;;;;;;5.88;3.35;;;9.70;99.90;;;;;;5097640;28;20201;-87
2022/01/03 07:31:25;;;;;;;3.95;1.63;;;9.70;99.90;;;;;;5090918;28;20728;-86
2022/01/03 07:38:00;;;;;;;;;;;;;;;;;;;;;
2022/01/03 07:40:55;;;;;;;8.80;1.47;;;9.70;99.90;;;;;;5085356;28;20300;-86
2022/01/03 08:10:53;;;;;;;4.88;1.50;;;9.20;99.90;;;;;;4926322;29;20229;-86
2022/01/03 08:13:20;;;;;;;3.03;1.27;;;9.20;99.90;;;;;;4951704;28;20245;-81
2022/01/03 08:15:46;;;;;;;3.35;1.95;;;9.20;99.90;;;;;;5002816;28;20325;-80
2022/01/03 08:18:13;;;;;;;4.90;2.47;;;9.20;99.90;;;;;;5097056;28;20212;-79
2022/01/03 08:20:40;;;;;;;2.40;1.33;;;9.30;99.90;;;;;;5088164;28;20197;-81
2022/01/03 08:31:32;;;;;;;3.58;2.38;;;9.50;99.90;;;;;;3983695;26;20293;-83
2022/01/03 08:37:34;;;;;;;6.03;1.80;;;9.60;99.90;;;;;;5027286;28;20228;-84
2022/01/03 08:59:09;;;;;;;9.00;1.57;;;10.10;99.90;;;;;;5063577;28;20795;-84
2022/01/03 09:23:21;;;;;;;2.37;1.67;;;10.40;99.90;;;;;;4921066;28;20292;-84
2022/01/03 09:28:51;;;;;;;2.28;2.13;;;10.60;99.90;;;;;;5025510;28;20208;-79
2022/01/03 09:31:20;;;;;;;5.63;2.20;;;10.70;99.90;;;;;;5026978;28;20212;-80
2022/01/03 09:33:47;;;;;;;2.60;1.80;;;10.70;99.90;;;;;;5027029;28;20487;-81
2022/01/03 09:36:14;;;;;;;3.20;2.53;;;10.80;99.90;;;;;;5024155;28;20590;-81
2022/01/03 09:38:42;;;;;;;7.60;1.70;;;10.80;99.90;;;;;;5036992;28;20452;-81
2022/01/03 09:41:11;;;;;;;1.80;1.13;;;10.90;99.90;;;;;;5041404;28;20459;-88
2022/01/03 09:43:42;;;;;;;1.55;1.45;;;10.90;99.90;;;;;;5035497;28;20479;-87
2022/01/03 09:46:11;;;;;;;0.82;0.82;;;11.00;99.90;;;;;;5032282;28;20212;-86
2022/01/03 09:48:42;;;;;;;2.77;1.80;;;10.80;99.90;;;;;;5037805;28;20209;-87
2022/01/03 09:51:11;;;;;;;2.78;2.20;;;10.90;99.90;;;;;;5031292;28;20459;-87
2022/01/03 09:53:40;;;;;;;4.60;1.77;;;10.90;99.90;;;;;;5031153;28;20303;-88
2022/01/03 09:56:08;;;;;;;6.63;1.67;;;11.10;99.90;;;;;;5032348;28;20280;-87
2022/01/03 09:58:35;;;;;;;3.63;1.40;;;11.00;99.90;;;;;;5031370;28;20206;-86
2022/01/03 10:01:02;;;;;;;2.85;1.70;;;11.00;99.90;;;;;;5031913;28;20455;-88
2022/01/03 10:03:29;;;;;;;4.50;1.43;;;11.00;99.90;;;;;;5034810;28;20228;-88
2022/01/03 10:05:57;;;;;;;2.60;1.47;;;11.10;99.90;;;;;;5035565;28;20440;-88
2022/01/03 10:08:24;;;;;;;6.90;2.70;;;11.10;99.90;;;;;;5035190;28;21027;-87
2022/01/03 10:10:52;;;;;;;4.60;1.47;;;11.00;99.90;;;;;;5034551;28;20502;-87
2022/01/03 10:13:20;;;;;;;2.40;1.20;;;11.20;99.90;;;;;;5034644;28;20488;-86
2022/01/03 10:15:48;;;;;;;3.73;3.53;;;11.10;99.90;;;;;;5035153;28;20533;-88
2022/01/03 10:18:19;;;;;;;3.20;1.97;;;11.10;99.90;;;;;;5034841;28;20468;-87
2022/01/03 10:20:49;;;;;;;1.83;1.20;;;11.10;99.90;;;;;;5034099;28;20445;-87
2022/01/03 10:23:18;;;;;;;2.10;1.40;;;11.20;99.90;;;;;;5034687;28;20473;-87
2022/01/03 10:25:46;;;;;;;7.20;1.60;;;11.20;99.90;;;;;;5034352;28;20468;-89
2022/01/03 10:28:26;;;;;;;2.87;1.57;;;11.20;99.90;;;;;;5035515;28;20454;-87
2022/01/03 10:30:54;;;;;;;1.30;1.20;;;11.20;99.90;;;;;;5035127;28;20457;-87
2022/01/03 10:33:24;;;;;;;5.60;2.30;;;11.10;99.90;;;;;;5034228;28;20521;-87
2022/01/03 10:35:55;;;;;;;2.80;1.57;;;11.10;99.90;;;;;;5033749;28;20465;-87
2022/01/03 10:38:33;;;;;;;1.53;1.30;;;11.00;99.90;;;;;;5033704;28;20487;-87
2022/01/03 10:41:12;;;;;;;4.63;1.70;;;11.10;99.90;;;;;;5033205;28;20505;-86
2022/01/03 10:43:40;;;;;;;5.97;1.43;;;11.10;99.90;;;;;;5033974;28;20464;-86
2022/01/03 10:46:18;;;;;;;5.43;2.33;;;11.10;99.90;;;;;;5032947;28;20460;-87
2022/01/03 10:48:45;;;;;;;3.90;2.93;;;11.10;99.90;;;;;;5033476;28;20736;-86
2022/01/03 10:51:12;;;;;;;3.60;2.17;;;11.20;99.90;;;;;;5033125;28;20461;-87
2022/01/03 10:53:41;;;;;;;2.13;1.67;;;11.10;99.90;;;;;;5034107;28;20572;-87
2022/01/03 10:56:27;;;;;;;2.67;1.47;;;11.10;99.90;;;;;;5043086;28;20480;-87
2022/01/03 10:58:57;;;;;;;2.93;1.80;;;11.10;99.90;;;;;;5045136;28;20517;-87
2022/01/03 11:01:26;;;;;;;1.60;1.50;;;11.20;99.90;;;;;;5047670;28;20515;-86
2022/01/03 11:03:55;;;;;;;3.37;2.80;;;11.10;99.90;;;;;;5038143;28;20484;-88
2022/01/03 11:31:18;;;;;;;2.43;1.70;;;11.50;99.90;;;;;;5066623;28;20511;-88
2022/01/03 11:33:46;;;;;;;1.70;1.40;;;11.60;99.90;;;;;;5073592;28;20482;-87
2022/01/03 11:36:14;;;;;;;3.57;2.17;;;11.70;99.90;;;;;;5075501;28;20523;-87
2022/01/03 11:38:43;;;;;;;2.20;1.20;;;11.50;99.90;;;;;;5074945;28;20459;-87
2022/01/03 11:41:11;;;;;;;3.43;1.20;;;11.60;99.90;;;;;;5073949;28;20456;-87
2022/01/03 11:43:41;;;;;;;3.27;1.43;;;11.60;99.90;;;;;;5070280;28;20530;-85
2022/01/03 11:46:15;;;;;;;2.73;1.53;;;11.60;99.90;;;;;;5077245;28;20470;-86
2022/01/03 11:48:45;;;;;;;2.07;1.50;;;11.70;99.90;;;;;;5058330;28;20477;-85
2022/01/03 11:51:22;;;;;;;2.27;1.37;;;11.60;99.90;;;;;;5064226;28;20460;-85
2022/01/03 11:53:50;;;;;;;3.60;1.20;;;11.60;99.90;;;;;;5058202;28;20519;-86
2022/01/03 11:56:18;;;;;;;5.37;1.40;;;11.60;99.90;;;;;;5055881;28;20499;-86
2022/01/03 11:59:03;;;;;;;1.50;1.40;;;11.50;99.90;;;;;;5047666;28;20969;-86
2022/01/03 12:04:58;;;;;;;3.27;1.53;;;11.50;99.90;;;;;;5057365;28;20477;-85
2022/01/03 12:07:27;;;;;;;3.33;1.37;;;11.60;99.90;;;;;;5056360;28;20454;-85
2022/01/03 12:10:09;;;;;;;1.47;1.33;;;11.50;99.90;;;;;;5061448;28;20479;-85
2022/01/03 12:12:38;;;;;;;4.40;2.27;;;11.50;99.90;;;;;;5057554;28;22008;-85
2022/01/03 12:15:29;;;;;;;1.80;1.10;;;11.40;99.90;;;;;;5059341;28;20549;-86
2022/01/03 12:17:58;;;;;;;1.83;1.27;;;11.40;99.90;;;;;;5062338;28;20451;-85
2022/01/03 12:20:49;;;;;;;2.73;1.00;;;11.50;99.90;;;;;;5045487;28;20466;-86
2022/01/03 12:23:38;;;;;;;3.73;1.40;;;11.50;99.90;;;;;;5050419;28;20635;-84
2022/01/03 12:26:12;;;;;;;1.67;1.50;;;11.60;99.90;;;;;;5070006;28;20948;-84
2022/01/03 12:29:05;;;;;;;4.90;2.03;;;11.30;99.90;;;;;;5071304;28;20447;-84
2022/01/03 12:32:11;;;;;;;1.33;1.23;;;11.10;99.90;;;;;;5068795;28;20450;-85
2022/01/03 12:34:40;;;;;;;1.63;1.53;;;11.00;99.90;;;;;;5050108;28;20495;-84
2022/01/03 12:37:16;;;;;;;1.70;1.10;;;11.00;99.90;;;;;;5065347;28;20494;-84
2022/01/03 12:40:10;;;;;;;1.83;1.00;;;11.10;99.90;;;;;;5065276;28;20461;-86
2022/01/03 12:42:57;;;;;;;1.50;1.10;;;11.10;99.90;;;;;;5065669;28;20450;-86
2022/01/03 12:45:53;;;;;;;1.13;1.00;;;11.00;99.90;;;;;;5068290;28;20443;-88
2022/01/03 12:48:22;;;;;;;2.00;1.60;;;11.20;99.90;;;;;;5043621;28;20460;-86
2022/01/03 12:51:14;;;;;;;2.93;1.17;;;11.30;99.90;;;;;;5044346;28;20988;-87
2022/01/03 12:57:22;;;;;;;2.93;1.50;;;11.50;99.90;;;;;;4976660;28;20457;-80
2022/01/03 12:59:48;;;;;;;4.53;1.20;;;11.50;99.90;;;;;;5055091;28;20439;-81
2022/01/03 13:02:28;;;;;;;1.17;0.90;;;11.60;99.90;;;;;;5071283;28;20507;-81
2022/01/03 13:04:55;;;;;;;2.43;1.00;;;11.70;99.90;;;;;;5090441;28;20446;-80
2022/01/03 13:11:10;;;;;;;2.77;1.30;;;11.90;99.90;;;;;;5071932;28;20955;-84
2022/01/03 13:13:40;;;;;;;2.63;1.50;;;12.10;99.90;;;;;;5047394;28;20498;-81
2022/01/03 13:16:17;;;;;;;6.73;1.37;;;12.10;99.90;;;;;;5080982;28;20465;-80
2022/01/03 13:19:01;;;;;;;3.33;1.60;;;12.10;99.90;;;;;;5092969;28;20427;-85
2022/01/03 13:21:34;;;;;;;3.77;2.13;;;12.20;99.90;;;;;;5075162;28;20493;-81
2022/01/03 13:24:04;;;;;;;1.90;1.40;;;12.30;99.90;;;;;;5072054;28;20478;-81
2022/01/03 13:26:32;;;;;;;3.03;2.60;;;12.30;99.90;;;;;;5075728;28;20459;-82
2022/01/03 13:29:04;;;;;;;1.43;1.10;;;12.30;99.80;;;;;;5076330;28;20455;-81
2022/01/03 13:31:38;;;;;;;3.00;1.77;;;12.40;99.80;;;;;;5080908;28;20458;-82
2022/01/03 13:34:05;;;;;;;4.30;1.63;;;12.30;99.70;;;;;;5083309;28;20477;-81
2022/01/03 13:36:34;;;;;;;5.50;2.23;;;12.30;99.50;;;;;;5082120;28;20454;-84
2022/01/03 13:39:08;;;;;;;4.03;2.20;;;12.30;99.70;;;;;;5084171;28;20451;-81
2022/01/03 13:41:36;;;;;;;2.30;1.07;;;12.30;99.70;;;;;;5080870;28;20454;-82
2022/01/03 13:44:06;;;;;;;3.83;1.10;;;12.30;99.60;;;;;;5081282;28;20466;-82
2022/01/03 13:49:21;;;;;;;3.57;1.20;;;12.10;99.60;;;;;;5074926;28;20448;-81
2022/01/03 13:51:51;;;;;;;3.03;1.70;;;12.00;99.80;;;;;;5075281;28;20462;-81
2022/01/03 13:54:26;;;;;;;4.30;1.93;;;12.00;99.90;;;;;;5074615;28;20490;-79
2022/01/03 13:56:53;;;;;;;2.10;1.73;;;11.90;99.90;;;;;;5076751;28;20476;-80
2022/01/03 13:59:22;;;;;;;2.23;1.07;;;11.80;99.90;;;;;;5090527;28;20536;-81
2022/01/03 14:01:52;;;;;;;3.60;1.40;;;11.80;99.90;;;;;;5084007;28;20458;-82
2022/01/03 14:04:20;;;;;;;3.33;3.10;;;11.70;99.90;;;;;;5080656;28;20477;-82
2022/01/03 14:09:58;;;;;;;4.60;1.80;;;11.50;99.90;;;;;;5059424;28;20459;-82
2022/01/03 14:12:26;;;;;;;1.40;1.10;;;11.60;99.90;;;;;;5056848;28;20455;-81
2022/01/03 14:14:56;;;;;;;1.87;1.77;;;11.50;99.90;;;;;;5078274;28;20482;-81
2022/01/03 14:17:24;;;;;;;4.50;1.60;;;11.50;99.90;;;;;;5081404;28;20450;-81
2022/01/03 14:20:06;;;;;;;2.40;1.33;;;11.40;99.90;;;;;;5081115;28;20979;-82
2022/01/03 14:22:35;;;;;;;1.40;1.30;;;11.40;99.90;;;;;;5082610;28;20541;-81
2022/01/03 14:25:06;;;;;;;3.50;1.90;;;11.50;99.90;;;;;;5083452;28;20473;-82
2022/01/03 14:27:35;;;;;;;1.70;1.60;;;11.50;99.90;;;;;;5085028;28;20489;-82
2022/01/03 14:30:18;;;;;;;1.90;1.33;;;11.50;99.90;;;;;;5076939;28;20443;-82
2022/01/03 14:32:46;;;;;;;2.83;1.10;;;11.60;99.90;;;;;;5054918;28;20454;-83
2022/01/03 14:35:14;;;;;;;1.03;0.93;;;11.60;99.80;;;;;;5055368;28;20891;-83
2022/01/03 14:38:01;;;;;;;2.70;1.73;;;11.70;99.90;;;;;;5074792;28;20454;-88
2022/01/03 14:46:36;;;;;;;2.83;1.37;;;11.50;99.90;;;;;;3323221;26;20989;-87
2022/01/03 14:49:05;;;;;;;2.53;1.33;;;11.60;99.90;;;;;;5078774;28;20515;-83
2022/01/03 14:51:39;;;;;;;1.47;1.23;;;11.60;99.70;;;;;;5073018;28;20461;-84
2022/01/03 14:54:17;;;;;;;2.17;1.10;;;11.50;99.70;;;;;;5077711;28;20530;-84
2022/01/03 14:56:46;;;;;;;1.30;1.03;;;11.40;99.80;;;;;;5086239;28;20459;-82
2022/01/03 14:59:15;;;;;;;2.10;0.97;;;11.30;99.90;;;;;;5081648;28;20507;-83
2022/01/03 15:01:46;;;;;;;1.30;0.90;;;11.20;99.80;;;;;;5086665;28;20510;-84
2022/01/03 15:04:14;;;;;;;1.10;1.03;;;11.20;99.90;;;;;;5085292;28;20564;-85
2022/01/03 15:06:40;;;;;;;0.90;0.90;;;11.20;99.90;;;;;;5088388;28;20460;-84
2022/01/03 15:09:07;;;;;;;1.57;1.40;;;11.10;99.90;;;;;;5083212;28;20449;-84
2022/01/03 15:11:34;;;;;;;2.03;1.80;;;11.10;99.90;;;;;;5088949;28;20914;-84
2022/01/03 15:20:17;;;;;;;2.20;1.47;;;11.10;99.90;;;;;;4985179;28;20526;-84
2022/01/03 15:22:44;;;;;;;1.27;1.17;;;11.10;99.90;;;;;;5050217;28;20509;-82
2022/01/03 15:25:14;;;;;;;0.80;0.80;;;11.10;99.90;;;;;;5104825;22;20937;-82
2022/01/03 15:31:03;;;;;;;1.37;1.10;;;11.00;99.90;;;;;;5072828;28;20965;-83
2022/01/03 15:47:04;;;;;;;2.63;0.90;;;10.70;99.90;;;;;;4975054;28;20584;-85
2022/01/03 15:50:09;;;;;;;1.70;1.23;;;10.80;99.90;;;;;;5025582;28;20448;-84
2022/01/03 15:53:32;;;;;;;1.07;1.00;;;10.80;99.90;;;;;;5055858;28;20477;-82
2022/01/03 15:56:04;;;;;;;1.70;1.60;;;10.80;99.90;;;;;;5098407;28;20481;-82
2022/01/03 15:58:34;;;;;;;3.57;1.67;;;10.70;99.90;;;;;;5096916;28;20450;-82
2022/01/03 16:01:17;;;;;;;2.40;1.13;;;10.60;99.90;;;;;;5094152;28;20826;-80
2022/01/03 16:04:06;;;;;;;1.83;1.70;;;10.60;99.90;;;;;;5093473;28;20476;-81
2022/01/03 16:06:41;;;;;;;1.13;1.13;;;10.70;99.90;;;;;;5106419;28;20491;-83
2022/01/03 16:09:07;;;;;;;1.40;0.80;;;10.60;99.90;;;;;;5115785;28;20446;-82
2022/01/03 16:11:39;;;;;;;3.67;2.93;;;10.60;99.90;;;;;;5106188;28;20202;-82
2022/01/03 16:20:05;;;;;;;2.30;1.10;;;10.50;99.90;;;;;;5041438;28;20529;-83
2022/01/03 16:22:32;;;;;;;3.83;1.40;;;10.60;99.90;;;;;;5053699;28;20489;-82
2022/01/03 16:24:59;;;;;;;1.33;1.20;;;10.50;99.90;;;;;;5058524;28;20465;-86
2022/01/03 16:27:26;;;;;;;3.90;1.70;;;10.50;99.90;;;;;;5057558;28;21020;-84
2022/01/03 16:29:52;;;;;;;3.90;1.27;;;10.40;99.90;;;;;;5055220;28;20447;-85
2022/01/03 16:32:20;;;;;;;1.35;1.25;;;10.40;99.90;;;;;;5055775;28;20217;-84